Matsushima — 3ENU9 — position and weather

sailwx.info

Track history (hours):
 
Tides and Currents Weather Stations Pressure Air Temp Water Temp Dewpoint Dewpoint Depression Visibility Wind Speed Wind Dir Waves Ship Positions

Matsushima

Last reported at 2017-Nov-16 01:19 UTC. Time now 2017-Nov-17 23:19 UTC.
Position N 01°19' E 103°20'.

Length 125 m; draft 6 m.

Type: Cargo ship. MMSI: 352835000.

Date/timePositionNaut miles runAvg speedWind from/ knotsBaromVisibWave heightAir tempDewpointWater temp
2017-Nov-16 01:19N 01°19' E 103°20'3 9.1
2017-Nov-16 00:59N 01°17' E 103°22'5 9.6
2017-Nov-16 00:30N 01°14' E 103°26'510.2
2017-Nov-15 23:59N 01°13' E 103°31'612.0
2017-Nov-15 23:30N 01°12' E 103°37'5 9.1
2017-Nov-15 23:00N 01°13' E 103°41'5 9.6
2017-Nov-15 22:30N 01°17' E 103°44'2 4.5
2017-Nov-15 22:00N 01°18' E 103°43'0 0.1
2017-Nov-15 21:28N 01°18' E 103°43'0 0.0
2017-Nov-15 20:52N 01°18' E 103°43'0 0.0
2017-Nov-15 20:25N 01°18' E 103°43'0 0.0
2017-Nov-15 19:55N 01°18' E 103°43'0 0.0
2017-Nov-15 19:28N 01°18' E 103°43'0 0.0
2017-Nov-15 18:58N 01°18' E 103°43'0 0.0
2017-Nov-15 18:28N 01°18' E 103°43'0 0.0
2017-Nov-15 17:58N 01°18' E 103°43'0 0.0
2017-Nov-15 17:28N 01°18' E 103°43'0 0.0
2017-Nov-15 16:58N 01°18' E 103°43'0 0.0
2017-Nov-15 16:28N 01°18' E 103°43'0 0.0
2017-Nov-15 15:58N 01°18' E 103°43'0 0.0
2017-Nov-15 15:28N 01°18' E 103°43'0 0.0
2017-Nov-15 14:58N 01°18' E 103°43'0 0.0
2017-Nov-15 14:28N 01°18' E 103°43'0 0.0
2017-Nov-15 13:58N 01°18' E 103°43'0 0.0
2017-Nov-15 13:28N 01°18' E 103°43'0 0.0
2017-Nov-15 12:58N 01°18' E 103°43'0 0.0
2017-Nov-15 12:28N 01°18' E 103°43'0 0.0
2017-Nov-15 11:55N 01°18' E 103°43'0 0.0
2017-Nov-15 11:28N 01°18' E 103°43'0 0.0
2017-Nov-15 10:58N 01°18' E 103°43'0 0.0
2017-Nov-15 10:28N 01°18' E 103°43'0 0.0
2017-Nov-15 09:58N 01°18' E 103°43'0 0.0
2017-Nov-15 09:28N 01°18' E 103°43'0 0.0
2017-Nov-15 08:49N 01°18' E 103°43'0 0.0
2017-Nov-15 08:28N 01°18' E 103°43'0 0.0
2017-Nov-15 07:58N 01°18' E 103°43'0 0.0
2017-Nov-15 07:28N 01°18' E 103°43'0 0.0
2017-Nov-15 06:55N 01°18' E 103°43'0 0.0
2017-Nov-15 06:28N 01°18' E 103°43'0 0.0
2017-Nov-15 05:58N 01°18' E 103°43'0 0.0
2017-Nov-15 05:28N 01°18' E 103°43'0 0.0
2017-Nov-15 04:58N 01°18' E 103°43'0 0.0
2017-Nov-15 04:28N 01°18' E 103°43'0 0.0
2017-Nov-15 03:55N 01°18' E 103°43'0 0.0
2017-Nov-15 03:25N 01°18' E 103°43'0 0.0
2017-Nov-15 02:58N 01°18' E 103°43'0 0.0
2017-Nov-15 02:28N 01°18' E 103°43'0 0.0
2017-Nov-15 01:58N 01°18' E 103°43'0 0.0
2017-Nov-15 01:28N 01°18' E 103°43'0 0.0
2017-Nov-15 00:52N 01°18' E 103°43'0 0.0
2017-Nov-15 00:28N 01°18' E 103°43'0 0.0
2017-Nov-14 23:58N 01°18' E 103°43'0 0.0
2017-Nov-14 23:28N 01°18' E 103°43'0 0.9
2017-Nov-14 23:01N 01°18' E 103°43'3 5.1
2017-Nov-14 22:30N 01°16' E 103°45'4 7.1
2017-Nov-14 22:00N 01°14' E 103°47'5 9.6
2017-Nov-14 21:31N 01°13' E 103°52'1 2.6
2017-Nov-14 21:01N 01°13' E 103°53'2 4.4
2017-Nov-14 20:30N 01°14' E 103°56'4 7.4
2017-Nov-14 20:00N 01°15' E 103°59'  
Track history (hours):
 
Tides and Currents Weather Stations Pressure Air Temp Water Temp Dewpoint Dewpoint Depression Visibility Wind Speed Wind Dir Waves Ship Positions

Matsushima

Last reported at 2017-Nov-16 01:19 UTC. Time now 2017-Nov-17 23:19 UTC.
Position N 01°19' E 103°20'.

Length 125 m; draft 6 m.

Type: Cargo ship. MMSI: 352835000.

Date/timePositionNaut miles runAvg speedWind from/ knotsBaromVisibWave heightAir tempDewpointWater temp
2017-Nov-16 01:19N 01°19' E 103°20'3 9.1
2017-Nov-16 00:59N 01°17' E 103°22'5 9.6
2017-Nov-16 00:30N 01°14' E 103°26'510.2
2017-Nov-15 23:59N 01°13' E 103°31'612.0
2017-Nov-15 23:30N 01°12' E 103°37'5 9.1
2017-Nov-15 23:00N 01°13' E 103°41'5 9.6
2017-Nov-15 22:30N 01°17' E 103°44'2 4.5
2017-Nov-15 22:00N 01°18' E 103°43'0 0.1
2017-Nov-15 21:28N 01°18' E 103°43'0 0.0
2017-Nov-15 20:52N 01°18' E 103°43'0 0.0
2017-Nov-15 20:25N 01°18' E 103°43'0 0.0
2017-Nov-15 19:55N 01°18' E 103°43'0 0.0
2017-Nov-15 19:28N 01°18' E 103°43'0 0.0
2017-Nov-15 18:58N 01°18' E 103°43'0 0.0
2017-Nov-15 18:28N 01°18' E 103°43'0 0.0
2017-Nov-15 17:58N 01°18' E 103°43'0 0.0
2017-Nov-15 17:28N 01°18' E 103°43'0 0.0
2017-Nov-15 16:58N 01°18' E 103°43'0 0.0
2017-Nov-15 16:28N 01°18' E 103°43'0 0.0
2017-Nov-15 15:58N 01°18' E 103°43'0 0.0
2017-Nov-15 15:28N 01°18' E 103°43'0 0.0
2017-Nov-15 14:58N 01°18' E 103°43'0 0.0
2017-Nov-15 14:28N 01°18' E 103°43'0 0.0
2017-Nov-15 13:58N 01°18' E 103°43'0 0.0
2017-Nov-15 13:28N 01°18' E 103°43'0 0.0
2017-Nov-15 12:58N 01°18' E 103°43'0 0.0
2017-Nov-15 12:28N 01°18' E 103°43'0 0.0
2017-Nov-15 11:55N 01°18' E 103°43'0 0.0
2017-Nov-15 11:28N 01°18' E 103°43'0 0.0
2017-Nov-15 10:58N 01°18' E 103°43'0 0.0
2017-Nov-15 10:28N 01°18' E 103°43'0 0.0
2017-Nov-15 09:58N 01°18' E 103°43'0 0.0
2017-Nov-15 09:28N 01°18' E 103°43'0 0.0
2017-Nov-15 08:49N 01°18' E 103°43'0 0.0
2017-Nov-15 08:28N 01°18' E 103°43'0 0.0
2017-Nov-15 07:58N 01°18' E 103°43'0 0.0
2017-Nov-15 07:28N 01°18' E 103°43'0 0.0
2017-Nov-15 06:55N 01°18' E 103°43'0 0.0
2017-Nov-15 06:28N 01°18' E 103°43'0 0.0
2017-Nov-15 05:58N 01°18' E 103°43'0 0.0
2017-Nov-15 05:28N 01°18' E 103°43'0 0.0
2017-Nov-15 04:58N 01°18' E 103°43'0 0.0
2017-Nov-15 04:28N 01°18' E 103°43'0 0.0
2017-Nov-15 03:55N 01°18' E 103°43'0 0.0
2017-Nov-15 03:25N 01°18' E 103°43'0 0.0
2017-Nov-15 02:58N 01°18' E 103°43'0 0.0
2017-Nov-15 02:28N 01°18' E 103°43'0 0.0
2017-Nov-15 01:58N 01°18' E 103°43'0 0.0
2017-Nov-15 01:28N 01°18' E 103°43'0 0.0
2017-Nov-15 00:52N 01°18' E 103°43'0 0.0
2017-Nov-15 00:28N 01°18' E 103°43'0 0.0
2017-Nov-14 23:58N 01°18' E 103°43'0 0.0
2017-Nov-14 23:28N 01°18' E 103°43'0 0.9
2017-Nov-14 23:01N 01°18' E 103°43'3 5.1
2017-Nov-14 22:30N 01°16' E 103°45'4 7.1
2017-Nov-14 22:00N 01°14' E 103°47'5 9.6
2017-Nov-14 21:31N 01°13' E 103°52'1 2.6
2017-Nov-14 21:01N 01°13' E 103°53'2 4.4
2017-Nov-14 20:30N 01°14' E 103°56'4 7.4
2017-Nov-14 20:00N 01°15' E 103°59'  

Dump ship's entire track history